createdAt,value
2018-09-03T00:01:48.001Z,101479.16
2018-09-03T00:04:16.489Z,101477.73
2018-09-03T00:06:45.017Z,101472.58
2018-09-03T00:09:13.548Z,101467.46
2018-09-03T00:11:42.009Z,101471.56
2018-09-03T00:14:10.481Z,101462.71
2018-09-03T00:16:38.945Z,101460.25
2018-09-03T00:19:07.529Z,101455.07
2018-09-03T00:21:36.052Z,101451.81
2018-09-03T00:24:04.522Z,101447.89
2018-09-03T00:26:33.070Z,101441.32
2018-09-03T00:29:01.637Z,101437.95
2018-09-03T00:31:35.624Z,101434.67
2018-09-03T00:34:09.473Z,101436.73
2018-09-03T00:36:43.101Z,101433.31
2018-09-03T00:40:20.581Z,101427.78
2018-09-03T00:42:54.349Z,101423.09
2018-09-03T00:45:27.938Z,101420.23
2018-09-03T00:47:56.466Z,101418.30
2018-09-03T00:50:24.994Z,101414.41
2018-09-03T00:52:53.513Z,101414.64
2018-09-03T00:55:22.070Z,101416.00
2018-09-03T00:57:50.576Z,101413.23
2018-09-03T01:00:19.065Z,101413.88
2018-09-03T01:02:47.945Z,101407.73
2018-09-03T01:05:16.425Z,101403.59
2018-09-03T01:07:44.924Z,101403.39
2018-09-03T01:10:13.446Z,101399.50
2018-09-03T01:12:41.985Z,101404.01
2018-09-03T01:15:10.490Z,101397.86
2018-09-03T01:17:38.993Z,101393.45
2018-09-03T01:20:07.631Z,101391.42
2018-09-03T01:22:36.256Z,101386.47
2018-09-03T01:25:04.781Z,101381.35
2018-09-03T01:27:33.249Z,101379.94
2018-09-03T01:30:01.800Z,101378.40
2018-09-03T01:32:30.329Z,101385.36
2018-09-03T01:34:58.837Z,101381.35
2018-09-03T01:37:27.357Z,101382.28
2018-09-03T01:39:56.096Z,101378.88
2018-09-03T01:42:24.713Z,101377.14
2018-09-03T01:44:53.190Z,101382.89
2018-09-03T01:47:21.665Z,101369.84
2018-09-03T01:49:50.261Z,101385.75
2018-09-03T01:52:19.176Z,101384.77
2018-09-03T01:54:47.656Z,101381.30
2018-09-03T01:57:16.137Z,101384.64
2018-09-03T01:59:44.650Z,101378.69
2018-09-03T02:02:13.164Z,101382.66
2018-09-03T02:04:41.716Z,101366.97
2018-09-03T02:07:10.214Z,101375.27
2018-09-03T02:09:38.666Z,101373.97
2018-09-03T02:12:11.532Z,101371.27
2018-09-03T02:14:40.579Z,101366.22
2018-09-03T02:17:09.970Z,101364.56
2018-09-03T02:19:38.575Z,101361.39
2018-09-03T02:22:07.475Z,101366.72
2018-09-03T02:24:36.237Z,101372.86
2018-09-03T02:27:04.758Z,101375.75
2018-09-03T02:29:33.299Z,101370.48
2018-09-03T02:32:02.144Z,101371.02
2018-09-03T02:34:30.644Z,101384.59
2018-09-03T02:36:59.162Z,101379.28
2018-09-03T02:39:27.671Z,101380.95
2018-09-03T02:41:56.342Z,101381.88
2018-09-03T02:44:24.865Z,101387.08
2018-09-03T02:46:53.351Z,101393.68
2018-09-03T02:49:21.854Z,101385.56
2018-09-03T02:51:50.440Z,101399.31
2018-09-03T02:54:18.925Z,101391.02
2018-09-03T02:56:47.473Z,101388.38
2018-09-03T02:59:15.974Z,101388.88
2018-09-03T03:01:44.538Z,101387.36
2018-09-03T03:04:13.170Z,101390.83
2018-09-03T03:06:41.850Z,101388.05
2018-09-03T03:09:10.529Z,101386.20
2018-09-03T03:11:39.735Z,101373.47
2018-09-03T03:14:08.352Z,101373.98
2018-09-03T03:16:36.870Z,101367.09
2018-09-03T03:19:05.570Z,101364.20
2018-09-03T03:21:34.191Z,101354.20
2018-09-03T03:24:02.697Z,101350.02
2018-09-03T03:26:31.278Z,101345.51
2018-09-03T03:28:59.854Z,101346.84
2018-09-03T03:31:28.458Z,101348.58
2018-09-03T03:33:57.116Z,101345.51
2018-09-03T03:36:25.777Z,101346.84
2018-09-03T03:38:54.422Z,101352.55
2018-09-03T03:41:22.961Z,101352.36
2018-09-03T03:43:51.428Z,101356.77
2018-09-03T03:46:19.969Z,101356.08
2018-09-03T03:48:48.474Z,101363.69
2018-09-03T03:51:17.384Z,101353.88
2018-09-03T03:53:45.954Z,101351.38
2018-09-03T03:56:14.413Z,101354.45
2018-09-03T03:58:42.950Z,101349.01
2018-09-03T04:01:11.454Z,101345.00
2018-09-03T04:03:39.940Z,101337.34
2018-09-03T04:06:08.757Z,101330.54
2018-09-03T04:08:37.266Z,101319.28
2018-09-03T04:11:06.613Z,101308.90
2018-09-03T04:13:35.154Z,101302.22
2018-09-03T04:16:03.671Z,101314.27
2018-09-03T04:18:32.161Z,101318.01
2018-09-03T04:21:00.694Z,101318.70
2018-09-03T04:23:29.437Z,101315.92
2018-09-03T04:25:57.797Z,101309.31
2018-09-03T04:28:26.301Z,101311.17
2018-09-03T04:30:54.786Z,101306.57
2018-09-03T04:33:23.521Z,101308.83
2018-09-03T04:35:52.122Z,101313.05
2018-09-03T04:38:21.042Z,101313.77
2018-09-03T04:40:49.560Z,101315.60
2018-09-03T04:43:18.095Z,101324.63
2018-09-03T04:45:46.586Z,101320.52
2018-09-03T04:48:15.121Z,101322.77
2018-09-03T04:50:43.636Z,101318.66
2018-09-03T04:53:12.207Z,101318.34
2018-09-03T04:55:40.763Z,101317.63
2018-09-03T04:58:09.250Z,101316.80
2018-09-03T05:00:37.807Z,101308.59
2018-09-03T05:03:06.445Z,101299.03
2018-09-03T05:05:35.062Z,101298.13
2018-09-03T05:08:03.635Z,101302.13
2018-09-03T05:10:32.933Z,101295.54
2018-09-03T05:13:01.492Z,101296.84
2018-09-03T05:15:30.086Z,101298.53
2018-09-03T05:17:58.953Z,101295.11
2018-09-03T05:20:27.547Z,101294.39
2018-09-03T05:22:56.811Z,101293.75
2018-09-03T05:25:25.374Z,101297.50
2018-09-03T05:27:53.888Z,101300.06
2018-09-03T05:30:22.397Z,101303.12
2018-09-03T05:32:50.913Z,101300.70
2018-09-03T05:35:19.486Z,101304.13
2018-09-03T05:37:48.005Z,101298.82
2018-09-03T05:40:16.489Z,101298.39
2018-09-03T05:42:45.404Z,101300.39
2018-09-03T05:45:13.868Z,101302.22
2018-09-03T05:47:42.430Z,101303.90
2018-09-03T05:50:11.422Z,101308.70
2018-09-03T05:52:39.906Z,101301.99
2018-09-03T05:55:08.431Z,101295.42
2018-09-03T05:57:36.980Z,101290.91
2018-09-03T06:00:06.402Z,101293.25
2018-09-03T06:02:34.902Z,101298.45
2018-09-03T06:05:03.438Z,101298.02
2018-09-03T06:07:40.062Z,101298.11
2018-09-03T06:10:08.584Z,101292.66
2018-09-03T06:12:37.279Z,101285.48
2018-09-03T06:15:06.026Z,101285.88
2018-09-03T06:17:34.557Z,101293.84
2018-09-03T06:20:03.051Z,101291.67
2018-09-03T06:22:31.565Z,101291.27
2018-09-03T06:25:00.044Z,101301.22
2018-09-03T06:27:28.555Z,101306.86
2018-09-03T06:29:57.100Z,101302.54
2018-09-03T06:32:25.823Z,101308.22
2018-09-03T06:34:54.661Z,101305.38
2018-09-03T06:37:24.042Z,101300.98
2018-09-03T06:39:52.573Z,101304.04
2018-09-03T06:42:21.219Z,101301.31
2018-09-03T06:44:49.784Z,101294.50
2018-09-03T06:47:18.330Z,101292.78
2018-09-03T06:49:46.923Z,101283.62
2018-09-03T06:52:15.452Z,101278.78
2018-09-03T06:54:44.081Z,101272.86
2018-09-03T06:57:12.565Z,101278.56
2018-09-03T06:59:41.132Z,101277.83
2018-09-03T07:02:09.692Z,101277.13
2018-09-03T07:04:38.197Z,101287.17
2018-09-03T07:07:07.198Z,101284.06
2018-09-03T07:09:35.794Z,101289.19
2018-09-03T07:12:04.322Z,101291.70
2018-09-03T07:14:32.854Z,101288.50
2018-09-03T07:17:01.402Z,101290.12
2018-09-03T07:19:29.887Z,101286.55
2018-09-03T07:21:58.443Z,101280.55
2018-09-03T07:24:26.933Z,101285.42
2018-09-03T07:26:55.558Z,101283.95
2018-09-03T07:29:24.105Z,101280.27
2018-09-03T07:31:52.594Z,101280.97
2018-09-03T07:34:22.037Z,101274.33
2018-09-03T07:36:50.580Z,101278.03
2018-09-03T07:39:19.078Z,101292.28
2018-09-03T07:41:47.600Z,101282.91
2018-09-03T07:44:16.127Z,101279.78
2018-09-03T07:46:44.634Z,101275.34
2018-09-03T07:49:13.703Z,101275.54
2018-09-03T07:51:42.206Z,101273.02
2018-09-03T07:54:10.692Z,101272.75
2018-09-03T07:56:39.289Z,101271.41
2018-09-03T07:59:07.761Z,101269.91
2018-09-03T08:01:36.277Z,101263.87
2018-09-03T08:04:04.819Z,101264.73
2018-09-03T08:06:33.489Z,101268.87
2018-09-03T08:09:02.246Z,101258.84
2018-09-03T08:11:30.755Z,101260.39
2018-09-03T08:13:59.284Z,101264.72
2018-09-03T08:16:27.833Z,101254.67
2018-09-03T08:18:56.446Z,101250.94
2018-09-03T08:21:24.933Z,101250.71
2018-09-03T08:23:53.522Z,101252.63
2018-09-03T08:26:22.051Z,101248.13
2018-09-03T08:28:50.549Z,101243.89
2018-09-03T08:31:19.095Z,101246.87
2018-09-03T08:33:47.579Z,101255.55
2018-09-03T08:36:16.112Z,101250.34
2018-09-03T08:38:44.803Z,101254.30
2018-09-03T08:41:13.313Z,101258.16
2018-09-03T08:43:41.865Z,101252.77
2018-09-03T08:46:10.424Z,101252.62
2018-09-03T08:48:38.921Z,101249.67
2018-09-03T08:51:07.454Z,101250.43
2018-09-03T08:53:36.316Z,101245.00
2018-09-03T08:56:04.958Z,101235.27
2018-09-03T08:58:33.486Z,101227.02
2018-09-03T09:01:02.083Z,101223.17
2018-09-03T09:03:35.938Z,101221.27
2018-09-03T09:06:04.654Z,101224.33
2018-09-03T09:08:33.150Z,101226.33
2018-09-03T09:11:01.634Z,101221.17
2018-09-03T09:13:30.545Z,101217.39
2018-09-03T09:15:59.123Z,101221.94
2018-09-03T09:18:27.645Z,101221.73
2018-09-03T09:20:56.150Z,101224.72
2018-09-03T09:23:24.694Z,101223.19
2018-09-03T09:25:53.209Z,101218.45
2018-09-03T09:28:21.789Z,101216.63
2018-09-03T09:30:50.394Z,101213.70
2018-09-03T09:33:18.926Z,101217.19
2018-09-03T09:35:47.465Z,101220.39
2018-09-03T09:38:15.973Z,101215.11
2018-09-03T09:40:44.478Z,101223.90
2018-09-03T09:43:13.041Z,101212.94
2018-09-03T09:45:41.922Z,101208.86
2018-09-03T09:48:10.464Z,101208.31
2018-09-03T09:50:39.129Z,101205.61
2018-09-03T09:53:07.698Z,101212.58
2018-09-03T09:55:36.246Z,101208.02
2018-09-03T09:58:04.799Z,101200.63
2018-09-03T10:00:38.474Z,101201.44
2018-09-03T10:03:07.046Z,101190.02
2018-09-03T10:05:35.574Z,101189.23
2018-09-03T10:08:04.131Z,101197.75
2018-09-03T10:10:32.700Z,101188.67
2018-09-03T10:13:01.193Z,101188.36
2018-09-03T10:15:29.718Z,101187.59
2018-09-03T10:17:58.211Z,101183.63
2018-09-03T10:20:26.701Z,101188.27
2018-09-03T10:22:55.237Z,101192.27
2018-09-03T10:25:23.904Z,101191.70
2018-09-03T10:27:52.429Z,101189.94
2018-09-03T10:30:21.003Z,101187.48
2018-09-03T10:32:49.585Z,101188.76
2018-09-03T10:35:19.296Z,101186.80
2018-09-03T10:37:47.808Z,101183.13
2018-09-03T10:40:16.494Z,101182.27
2018-09-03T10:42:44.983Z,101165.23
2018-09-03T10:45:13.549Z,101165.69
2018-09-03T10:47:42.140Z,101157.59
2018-09-03T10:50:10.587Z,101157.06
2018-09-03T10:52:39.102Z,101148.23
2018-09-03T10:55:08.233Z,101143.98
2018-09-03T10:57:36.813Z,101148.16
2018-09-03T11:00:05.852Z,101137.17
2018-09-03T11:02:34.728Z,101132.98
2018-09-03T11:05:03.321Z,101133.22
2018-09-03T11:07:31.860Z,101127.27
2018-09-03T11:10:00.359Z,101123.31
2018-09-03T11:12:28.927Z,101116.97
2018-09-03T11:14:57.430Z,101112.16
2018-09-03T11:17:26.036Z,101115.84
2018-09-03T11:19:57.835Z,101115.55
2018-09-03T11:22:27.391Z,101123.65
2018-09-03T11:24:56.117Z,101125.03
2018-09-03T11:27:24.655Z,101121.89
2018-09-03T11:29:53.543Z,101116.53
2018-09-03T11:32:22.091Z,101110.40
2018-09-03T11:34:50.611Z,101112.84
2018-09-03T11:37:19.487Z,101104.22
2018-09-03T11:39:48.014Z,101101.00
2018-09-03T11:42:16.493Z,101093.46
2018-09-03T11:44:45.046Z,101095.89
2018-09-03T11:47:13.593Z,101091.84
2018-09-03T11:49:42.163Z,101096.44
2018-09-03T11:52:10.666Z,101094.49
2018-09-03T11:54:40.171Z,101095.27
2018-09-03T11:57:08.739Z,101098.30
2018-09-03T11:59:37.225Z,101096.38
2018-09-03T12:02:06.546Z,101094.69
2018-09-03T12:04:35.063Z,101100.73
2018-09-03T12:07:03.634Z,101093.70
2018-09-03T12:09:32.236Z,101100.98
2018-09-03T12:12:00.732Z,101093.41
2018-09-03T12:14:31.678Z,101091.83
2018-09-03T12:17:00.539Z,101086.95
2018-09-03T12:19:29.437Z,101087.77
2018-09-03T12:21:57.941Z,101085.91
2018-09-03T12:24:26.434Z,101081.51
2018-09-03T12:26:54.953Z,101082.04
2018-09-03T12:29:23.488Z,101079.05
2018-09-03T12:31:52.119Z,101081.27
2018-09-03T12:34:20.640Z,101076.91
2018-09-03T12:36:49.189Z,101073.45
2018-09-03T12:39:17.872Z,101070.75
2018-09-03T12:41:46.497Z,101075.57
2018-09-03T12:44:15.062Z,101079.03
2018-09-03T12:46:43.716Z,101073.62
2018-09-03T12:49:12.252Z,101070.34
2018-09-03T12:51:40.910Z,101066.72
2018-09-03T12:54:09.463Z,101064.63
2018-09-03T12:56:37.999Z,101065.46
2018-09-03T12:59:06.603Z,101073.49
2018-09-03T13:01:35.291Z,101071.32
2018-09-03T13:04:03.934Z,101072.95
2018-09-03T13:06:32.802Z,101082.17
2018-09-03T13:09:01.323Z,101074.54
2018-09-03T13:11:29.829Z,101074.92
2018-09-03T13:13:58.347Z,101066.83
2018-09-03T13:16:26.927Z,101063.58
2018-09-03T13:18:55.506Z,101065.52
2018-09-03T13:21:24.026Z,101062.92
2018-09-03T13:23:52.670Z,101061.71
2018-09-03T13:26:21.226Z,101056.24
2018-09-03T13:28:49.749Z,101062.59
2018-09-03T13:31:18.310Z,101062.81
2018-09-03T13:33:46.970Z,101052.58
2018-09-03T13:36:15.572Z,101048.53
2018-09-03T13:38:44.025Z,101047.39
2018-09-03T13:41:12.583Z,101040.36
2018-09-03T13:43:41.106Z,101035.66
2018-09-03T13:46:09.700Z,101025.36
2018-09-03T13:48:38.329Z,101020.05
2018-09-03T13:51:06.480Z,101013.56
2018-09-03T13:53:35.065Z,101014.70
2018-09-03T13:56:03.596Z,101008.92
2018-09-03T13:58:32.117Z,101008.64
2018-09-03T14:01:00.735Z,101017.02
2018-09-03T14:03:29.244Z,101014.23
2018-09-03T14:05:58.223Z,101018.13
2018-09-03T14:08:26.709Z,101019.34
2018-09-03T14:10:55.232Z,101013.13
2018-09-03T14:13:23.819Z,101017.24
2018-09-03T14:15:52.375Z,101018.06
2018-09-03T14:18:20.937Z,101022.73
2018-09-03T14:20:49.589Z,101015.16
2018-09-03T14:23:18.186Z,101009.67
2018-09-03T14:25:46.685Z,101014.59
2018-09-03T14:28:15.781Z,101013.24
2018-09-03T14:30:44.398Z,101011.70
2018-09-03T14:33:13.190Z,101008.15
2018-09-03T14:35:41.690Z,101007.23
2018-09-03T14:38:10.210Z,101003.22
2018-09-03T14:40:38.805Z,101007.33
2018-09-03T14:43:07.861Z,101007.61
2018-09-03T14:45:36.389Z,101006.47
2018-09-03T14:48:05.071Z,101005.73
2018-09-03T14:50:33.611Z,101011.11
2018-09-03T14:53:02.139Z,101011.89
2018-09-03T14:55:30.671Z,101002.00
2018-09-03T14:57:59.231Z,101006.93
2018-09-03T15:00:28.186Z,101002.08
2018-09-03T15:02:57.364Z,100998.30
2018-09-03T15:05:25.893Z,101003.91
2018-09-03T15:07:54.502Z,101000.77
2018-09-03T15:10:23.659Z,101002.42
2018-09-03T15:12:52.616Z,101002.74
2018-09-03T15:15:21.150Z,101002.59
2018-09-03T15:17:49.644Z,101005.64
2018-09-03T15:20:18.174Z,100999.59
2018-09-03T15:22:47.489Z,101004.28
2018-09-03T15:25:16.027Z,100994.16
2018-09-03T15:27:44.560Z,100997.92
2018-09-03T15:30:13.173Z,100998.33
2018-09-03T15:32:41.759Z,100993.88
2018-09-03T15:35:10.352Z,100995.17
2018-09-03T15:37:39.805Z,100991.35
2018-09-03T15:40:08.347Z,100997.11
2018-09-03T15:42:36.894Z,100997.55
2018-09-03T15:45:05.520Z,100993.48
2018-09-03T15:47:34.507Z,100992.92
2018-09-03T15:50:03.027Z,100993.03
2018-09-03T15:52:31.568Z,100996.08
2018-09-03T15:55:00.938Z,100997.47
2018-09-03T15:57:29.490Z,100993.44
2018-09-03T15:59:58.397Z,100992.39
2018-09-03T16:02:26.926Z,100997.55
2018-09-03T16:04:55.459Z,100992.16
2018-09-03T16:07:24.010Z,100994.25
2018-09-03T16:09:52.542Z,100996.84
2018-09-03T16:12:21.107Z,100991.89
2018-09-03T16:14:49.604Z,100994.11
2018-09-03T16:17:18.196Z,100993.19
2018-09-03T16:19:46.715Z,100991.80
2018-09-03T16:22:15.268Z,100990.72
2018-09-03T16:24:43.839Z,100982.40
2018-09-03T16:27:12.452Z,100985.73
2018-09-03T16:29:40.959Z,100980.07
2018-09-03T16:32:09.831Z,100975.72
2018-09-03T16:34:38.594Z,100979.12
2018-09-03T16:37:07.353Z,100982.45
2018-09-03T16:39:35.922Z,100978.45
2018-09-03T16:42:04.532Z,100978.92
2018-09-03T16:44:33.168Z,100980.02
2018-09-03T16:47:01.707Z,100987.36
2018-09-03T16:49:30.258Z,100982.23
2018-09-03T16:51:58.821Z,100983.33
2018-09-03T16:54:27.377Z,100986.33
2018-09-03T16:56:55.882Z,100980.94
2018-09-03T16:59:24.489Z,100982.58
2018-09-03T17:01:52.990Z,100980.69
2018-09-03T17:04:21.571Z,100985.53
2018-09-03T17:06:50.124Z,100981.48
2018-09-03T17:09:18.707Z,100981.22
2018-09-03T17:11:47.199Z,100984.78
2018-09-03T17:14:15.763Z,100979.70
2018-09-03T17:16:44.435Z,100980.26
2018-09-03T17:19:13.041Z,100980.30
2018-09-03T17:21:41.522Z,100980.09
2018-09-03T17:24:10.089Z,100978.75
2018-09-03T17:26:38.656Z,100980.96
2018-09-03T17:29:07.227Z,100987.99
2018-09-03T17:31:35.711Z,100984.20
2018-09-03T17:34:04.216Z,100989.35
2018-09-03T17:36:32.776Z,100991.28
2018-09-03T17:39:01.346Z,100990.72
2018-09-03T17:41:29.867Z,100987.48
2018-09-03T17:43:58.395Z,100991.55
2018-09-03T17:46:26.889Z,100986.14
2018-09-03T17:48:55.450Z,100988.02
2018-09-03T17:51:23.943Z,100990.45
2018-09-03T17:53:52.511Z,100985.20
2018-09-03T17:56:21.023Z,100989.98
2018-09-03T17:58:49.574Z,100993.09
2018-09-03T18:01:18.457Z,100992.53
2018-09-03T18:03:47.032Z,100990.35
2018-09-03T18:06:15.625Z,100987.30
2018-09-03T18:08:44.302Z,100996.72
2018-09-03T18:11:12.851Z,100998.33
2018-09-03T18:13:41.345Z,100992.32
2018-09-03T18:16:09.895Z,100991.70
2018-09-03T18:18:38.505Z,100988.15
2018-09-03T18:21:07.058Z,100992.94
2018-09-03T18:26:03.265Z,101000.39
2018-09-03T18:28:31.758Z,100993.54
2018-09-03T18:31:00.283Z,101003.10
2018-09-03T18:33:28.835Z,101000.53
2018-09-03T18:35:57.408Z,100998.31
2018-09-03T18:38:25.914Z,101008.82
2018-09-03T18:40:54.404Z,101005.39
2018-09-03T18:43:23.011Z,101009.38
2018-09-03T18:45:51.608Z,101003.63
2018-09-03T18:48:20.151Z,101006.28
2018-09-03T18:50:48.630Z,101002.77
2018-09-03T18:53:17.146Z,101012.36
2018-09-03T18:55:45.698Z,101013.70
2018-09-03T18:58:14.245Z,101007.80
2018-09-03T19:00:42.848Z,101009.61
2018-09-03T19:03:11.375Z,101017.13
2018-09-03T19:05:39.946Z,101010.09
2018-09-03T19:08:08.451Z,101013.28
2018-09-03T19:10:36.961Z,101014.05
2018-09-03T19:13:05.475Z,101015.59
2018-09-03T19:15:33.998Z,101027.19
2018-09-03T19:18:02.561Z,101017.67
2018-09-03T19:20:31.045Z,101016.72
2018-09-03T19:22:59.583Z,101013.06
2018-09-03T19:25:28.162Z,101023.17
2018-09-03T19:27:56.642Z,101020.55
2018-09-03T19:30:25.183Z,101020.37
2018-09-03T19:32:53.743Z,101017.88
2018-09-03T19:35:22.717Z,101018.00
2018-09-03T19:37:51.250Z,101019.90
2018-09-03T19:40:19.776Z,101023.05
2018-09-03T19:42:48.297Z,101023.18
2018-09-03T19:45:16.842Z,101023.83
2018-09-03T19:47:45.342Z,101017.38
2018-09-03T19:50:13.934Z,101018.77
2018-09-03T19:52:42.795Z,101017.80
2018-09-03T19:55:11.286Z,101022.70
2018-09-03T19:57:39.749Z,101030.02
2018-09-03T20:00:08.297Z,101033.48
2018-09-03T20:02:36.812Z,101025.94
2018-09-03T20:05:05.349Z,101027.86
2018-09-03T20:07:33.934Z,101028.59
2018-09-03T20:10:02.475Z,101027.99
2018-09-03T20:12:31.362Z,101024.05
2018-09-03T20:14:59.909Z,101015.61
2018-09-03T20:17:28.410Z,101018.67
2018-09-03T20:19:57.018Z,101016.64
2018-09-03T20:22:25.545Z,101017.53
2018-09-03T20:24:54.138Z,101020.62
2018-09-03T20:27:22.641Z,101016.66
2018-09-03T20:29:51.177Z,101017.70
2018-09-03T20:32:19.685Z,101011.48
2018-09-03T20:34:48.194Z,101014.67
2018-09-03T20:37:17.058Z,101018.33
2018-09-03T20:39:45.563Z,101016.06
2018-09-03T20:42:14.090Z,101013.64
2018-09-03T20:44:42.708Z,101014.98
2018-09-03T20:47:11.147Z,101016.58
2018-09-03T20:49:39.756Z,101015.80
2018-09-03T20:52:08.254Z,101007.70
2018-09-03T20:54:36.793Z,101008.84
2018-09-03T20:57:05.362Z,101008.00
2018-09-03T20:59:34.247Z,101007.42
2018-09-03T21:02:02.771Z,101010.38
2018-09-03T21:04:31.350Z,101002.63
2018-09-03T21:06:59.958Z,101004.44
2018-09-03T21:09:28.629Z,101009.39
2018-09-03T21:11:57.190Z,101006.70
2018-09-03T21:14:25.708Z,101008.87
2018-09-03T21:16:54.251Z,101008.20
2018-09-03T21:19:22.770Z,101000.92
2018-09-03T21:21:51.356Z,101002.70
2018-09-03T21:24:20.633Z,100998.95
2018-09-03T21:26:49.133Z,100995.74
2018-09-03T21:29:17.742Z,100996.05
2018-09-03T21:31:46.275Z,100995.24
2018-09-03T21:34:14.789Z,100996.37
2018-09-03T21:36:43.463Z,100997.41
2018-09-03T21:39:12.122Z,101002.28
2018-09-03T21:41:40.622Z,101000.94
2018-09-03T21:44:09.102Z,100999.39
2018-09-03T21:46:37.685Z,100997.55
2018-09-03T21:49:06.248Z,100996.70
2018-09-03T21:51:34.750Z,100998.12
2018-09-03T21:54:03.269Z,100999.21
2018-09-03T21:56:31.753Z,101002.97
2018-09-03T21:59:00.335Z,101001.91
2018-09-03T22:01:28.842Z,100995.89
2018-09-03T22:03:57.406Z,100995.56
2018-09-03T22:06:25.930Z,100998.00
2018-09-03T22:08:54.454Z,100997.14
2018-09-03T22:11:23.331Z,100992.23
2018-09-03T22:13:51.825Z,100992.21
2018-09-03T22:16:20.376Z,100994.45
2018-09-03T22:18:48.925Z,100992.28
2018-09-03T22:21:17.458Z,100996.56
2018-09-03T22:23:46.518Z,100992.08
2018-09-03T22:26:15.137Z,100988.84
2018-09-03T22:28:43.653Z,100990.49
2018-09-03T22:31:12.613Z,100991.38
2018-09-03T22:33:41.200Z,100997.48
2018-09-03T22:36:09.689Z,101002.83
2018-09-03T22:38:38.234Z,101001.34
2018-09-03T22:41:07.206Z,101004.10
2018-09-03T22:43:35.787Z,101009.75
2018-09-03T22:46:04.350Z,101005.77
2018-09-03T22:48:32.857Z,101010.56
2018-09-03T22:51:01.362Z,101014.77
2018-09-03T22:53:29.989Z,101018.70
2018-09-03T22:55:58.502Z,101016.53
2018-09-03T22:58:27.037Z,101020.23
2018-09-03T23:00:56.488Z,101022.83
2018-09-03T23:03:24.989Z,101022.01
2018-09-03T23:05:53.498Z,101031.33
2018-09-03T23:08:22.018Z,101028.24
2018-09-03T23:10:50.535Z,101020.88
2018-09-03T23:13:19.057Z,101026.44
2018-09-03T23:15:52.175Z,101022.59
2018-09-03T23:18:21.750Z,101023.92
2018-09-03T23:20:50.240Z,101028.68
2018-09-03T23:23:18.838Z,101022.70
2018-09-03T23:25:47.843Z,101020.88
2018-09-03T23:28:16.413Z,101018.95
2018-09-03T23:30:45.006Z,101013.89
2018-09-03T23:33:13.518Z,101012.18
2018-09-03T23:35:41.965Z,101010.16
2018-09-03T23:38:10.457Z,101013.50
2018-09-03T23:40:38.993Z,101010.90
2018-09-03T23:43:07.537Z,101001.52
2018-09-03T23:45:36.066Z,100997.98
2018-09-03T23:48:04.676Z,101001.94
2018-09-03T23:50:33.172Z,101001.31
2018-09-03T23:53:01.745Z,101002.59
2018-09-03T23:55:30.256Z,100997.19
2018-09-03T23:57:58.765Z,100991.62
